createdAt,value
2022-09-15T00:02:24.652Z,14.50
2022-09-15T00:05:26.781Z,14.40
2022-09-15T00:08:28.730Z,14.40
2022-09-15T00:11:33.245Z,14.40
2022-09-15T00:14:35.150Z,14.40
2022-09-15T00:17:37.028Z,14.50
2022-09-15T00:20:43.782Z,14.80
2022-09-15T00:23:47.357Z,14.80
2022-09-15T00:26:49.272Z,14.70
2022-09-15T00:29:51.464Z,14.80
2022-09-15T00:32:53.312Z,14.70
2022-09-15T00:35:55.433Z,14.70
2022-09-15T00:38:57.437Z,14.60
2022-09-15T00:41:59.364Z,14.60
2022-09-15T00:45:03.629Z,14.60
2022-09-15T00:48:07.746Z,14.50
2022-09-15T00:51:11.907Z,14.50
2022-09-15T00:54:29.509Z,14.50
2022-09-15T00:57:43.345Z,14.50
2022-09-15T01:00:58.313Z,14.50
2022-09-15T01:04:00.830Z,14.50
2022-09-15T01:07:05.838Z,14.50
2022-09-15T01:10:19.262Z,14.50
2022-09-15T01:13:21.212Z,14.50
2022-09-15T01:16:56.260Z,14.40
2022-09-15T01:20:39.391Z,14.40
2022-09-15T01:24:08.699Z,14.30
2022-09-15T01:28:01.300Z,14.40
2022-09-15T01:31:12.651Z,14.50
2022-09-15T01:34:18.681Z,14.50
2022-09-15T01:37:29.705Z,14.50
2022-09-15T01:40:37.533Z,14.60
2022-09-15T01:43:49.829Z,14.60
2022-09-15T01:47:05.259Z,14.60
2022-09-15T01:50:13.200Z,14.60
2022-09-15T01:53:23.315Z,14.60
2022-09-15T01:56:25.247Z,14.60
2022-09-15T01:59:27.158Z,14.70
2022-09-15T02:02:44.090Z,14.70
2022-09-15T02:05:54.817Z,14.70
2022-09-15T02:09:02.627Z,14.70
2022-09-15T02:12:33.003Z,14.70
2022-09-15T02:15:43.686Z,14.70
2022-09-15T02:18:58.852Z,14.70
2022-09-15T02:22:18.919Z,14.70
2022-09-15T02:25:29.033Z,14.70
2022-09-15T02:28:36.652Z,14.60
2022-09-15T02:31:41.427Z,14.60
2022-09-15T02:34:47.789Z,14.60
2022-09-15T02:37:50.793Z,14.50
2022-09-15T02:40:52.958Z,14.40
2022-09-15T02:43:54.864Z,14.40
2022-09-15T02:47:00.721Z,14.20
2022-09-15T02:50:02.650Z,13.90
2022-09-15T02:53:04.962Z,13.60
2022-09-15T02:56:07.354Z,13.60
2022-09-15T02:59:09.610Z,13.50
2022-09-15T03:02:12.680Z,13.50
2022-09-15T03:05:16.392Z,13.50
2022-09-15T03:08:18.259Z,13.50
2022-09-15T03:11:22.123Z,13.60
2022-09-15T03:14:24.141Z,13.70
2022-09-15T03:17:26.045Z,13.60
2022-09-15T03:20:28.972Z,13.60
2022-09-15T03:23:30.979Z,13.60
2022-09-15T03:26:32.917Z,13.50
2022-09-15T03:29:34.785Z,13.60
2022-09-15T03:32:37.376Z,13.50
2022-09-15T03:35:39.203Z,13.50
2022-09-15T03:38:41.195Z,13.60
2022-09-15T03:41:43.113Z,13.60
2022-09-15T03:44:45.003Z,13.60
2022-09-15T03:47:46.860Z,13.50
2022-09-15T03:50:49.213Z,13.40
2022-09-15T03:53:51.181Z,13.60
2022-09-15T03:56:53.379Z,13.70
2022-09-15T03:59:55.213Z,13.70
2022-09-15T04:02:57.080Z,13.80
2022-09-15T04:05:58.902Z,13.90
2022-09-15T04:09:00.783Z,14.00
2022-09-15T04:12:04.826Z,14.10
2022-09-15T04:15:07.311Z,14.20
2022-09-15T04:18:09.243Z,14.30
2022-09-15T04:21:17.088Z,14.30
2022-09-15T04:24:19.489Z,14.40
2022-09-15T04:27:21.380Z,14.50
2022-09-15T04:30:23.267Z,14.60
2022-09-15T04:33:25.154Z,14.60
2022-09-15T04:36:28.663Z,14.60
2022-09-15T04:39:30.654Z,14.70
2022-09-15T04:42:32.553Z,14.70
2022-09-15T04:45:34.461Z,14.80
2022-09-15T04:48:37.794Z,14.90
2022-09-15T04:51:39.551Z,15.00
2022-09-15T04:54:41.403Z,15.00
2022-09-15T04:57:43.279Z,15.20
2022-09-15T05:00:45.305Z,15.30
2022-09-15T05:03:47.648Z,15.50
2022-09-15T05:06:49.525Z,15.50
2022-09-15T05:09:51.502Z,15.60
2022-09-15T05:12:54.256Z,15.70
2022-09-15T05:16:03.103Z,15.70
2022-09-15T05:19:05.060Z,15.80
2022-09-15T05:22:06.949Z,16.00
2022-09-15T05:25:09.055Z,16.00
2022-09-15T05:28:10.909Z,16.10
2022-09-15T05:31:19.640Z,16.20
2022-09-15T05:34:21.527Z,16.20
2022-09-15T05:37:23.398Z,16.20
2022-09-15T05:40:25.342Z,16.30
2022-09-15T05:43:30.069Z,16.40
2022-09-15T05:46:32.023Z,16.50
2022-09-15T05:49:34.001Z,16.60
2022-09-15T05:52:35.929Z,16.60
2022-09-15T05:55:38.461Z,16.60
2022-09-15T05:58:42.046Z,16.60
2022-09-15T06:01:46.224Z,16.70
2022-09-15T06:04:48.131Z,16.70
2022-09-15T06:07:52.360Z,16.80
2022-09-15T06:10:54.235Z,16.70
2022-09-15T06:13:58.972Z,16.70
2022-09-15T06:17:00.823Z,16.80
2022-09-15T06:20:06.101Z,17.00
2022-09-15T06:23:08.010Z,17.10
2022-09-15T06:26:11.739Z,17.20
2022-09-15T06:29:13.888Z,17.40
2022-09-15T06:32:15.834Z,17.50
2022-09-15T06:35:17.754Z,17.60
2022-09-15T06:38:19.594Z,17.60
2022-09-15T06:41:22.082Z,17.70
2022-09-15T06:44:23.917Z,17.70
2022-09-15T06:47:26.002Z,17.60
2022-09-15T06:50:27.893Z,17.50
2022-09-15T06:53:31.216Z,17.50
2022-09-15T06:56:37.643Z,17.60
2022-09-15T06:59:40.123Z,17.70
2022-09-15T07:02:42.017Z,17.90
2022-09-15T07:05:46.312Z,18.10
2022-09-15T07:08:48.565Z,18.40
2022-09-15T07:11:50.744Z,18.60
2022-09-15T07:14:52.769Z,18.60
2022-09-15T07:17:54.830Z,18.50
2022-09-15T07:21:01.267Z,18.50
2022-09-15T07:24:07.075Z,18.80
2022-09-15T07:27:09.676Z,18.80
2022-09-15T07:30:13.772Z,18.90
2022-09-15T07:33:15.736Z,18.90
2022-09-15T07:36:18.245Z,19.00
2022-09-15T07:39:20.093Z,19.10
2022-09-15T07:42:21.954Z,19.20
2022-09-15T07:45:24.019Z,19.30
2022-09-15T07:48:26.689Z,19.30
2022-09-15T07:51:28.758Z,19.20
2022-09-15T07:54:30.711Z,19.10
2022-09-15T07:57:32.554Z,19.40
2022-09-15T08:00:35.258Z,19.30
2022-09-15T08:03:41.464Z,19.50
2022-09-15T08:06:43.356Z,19.60
2022-09-15T08:09:45.246Z,20.00
2022-09-15T08:12:47.167Z,20.00
2022-09-15T08:15:49.133Z,20.20
2022-09-15T08:18:53.839Z,20.20
2022-09-15T08:21:56.296Z,20.00
2022-09-15T08:24:58.205Z,20.00
2022-09-15T08:28:00.136Z,20.10
2022-09-15T08:31:04.339Z,20.40
2022-09-15T08:34:07.185Z,20.50
2022-09-15T08:37:09.087Z,20.60
2022-09-15T08:40:28.817Z,21.00
2022-09-15T08:43:46.341Z,21.50
2022-09-15T08:46:51.523Z,21.60
2022-09-15T08:50:10.308Z,21.60
2022-09-15T08:53:35.731Z,21.50
2022-09-15T08:56:39.097Z,21.40
2022-09-15T08:59:40.958Z,21.30
2022-09-15T09:03:24.663Z,21.20
2022-09-15T09:06:46.088Z,21.10
2022-09-15T09:10:01.653Z,21.20
2022-09-15T09:13:34.714Z,21.30
2022-09-15T09:16:37.517Z,21.10
2022-09-15T09:20:02.854Z,20.90
2022-09-15T09:23:09.474Z,20.70
2022-09-15T09:26:14.039Z,20.90
2022-09-15T09:29:27.017Z,21.00
2022-09-15T09:32:46.451Z,21.30
2022-09-15T09:35:52.320Z,21.30
2022-09-15T09:38:55.782Z,20.90
2022-09-15T09:42:08.278Z,20.60
2022-09-15T09:45:30.653Z,20.50
2022-09-15T09:48:35.417Z,20.40
2022-09-15T09:51:51.847Z,20.30
2022-09-15T09:55:01.460Z,20.30
2022-09-15T09:58:15.595Z,20.20
2022-09-15T10:01:20.947Z,20.30
2022-09-15T10:04:23.358Z,20.30
2022-09-15T10:07:26.661Z,20.40
2022-09-15T10:10:32.266Z,20.40
2022-09-15T10:13:52.642Z,20.60
2022-09-15T10:16:58.311Z,20.70
2022-09-15T10:20:00.287Z,20.90
2022-09-15T10:23:25.936Z,21.10
2022-09-15T10:26:34.528Z,21.10
2022-09-15T10:29:40.043Z,21.00
2022-09-15T10:32:43.502Z,20.80
2022-09-15T10:35:45.751Z,20.80
2022-09-15T10:39:09.078Z,20.90
2022-09-15T10:42:31.592Z,21.00
2022-09-15T10:45:40.807Z,20.80
2022-09-15T10:49:10.377Z,20.80
2022-09-15T10:52:20.690Z,20.80
2022-09-15T10:55:42.471Z,20.70
2022-09-15T10:58:50.906Z,20.80
2022-09-15T11:02:31.625Z,20.90
2022-09-15T11:05:33.581Z,20.80
2022-09-15T11:08:41.199Z,20.70
2022-09-15T11:11:52.754Z,20.70
2022-09-15T11:15:00.499Z,20.70
2022-09-15T11:18:21.175Z,20.70
2022-09-15T11:21:23.186Z,20.80
2022-09-15T11:24:42.491Z,21.00
2022-09-15T11:27:59.913Z,21.30
2022-09-15T11:31:14.786Z,21.70
2022-09-15T11:34:16.718Z,21.40
2022-09-15T11:37:22.859Z,21.30
2022-09-15T11:40:29.905Z,21.20
2022-09-15T11:43:47.459Z,21.20
2022-09-15T11:47:24.725Z,21.30
2022-09-15T11:50:35.086Z,21.20
2022-09-15T11:54:04.049Z,21.20
2022-09-15T11:57:15.723Z,21.00
2022-09-15T12:00:17.914Z,21.00
2022-09-15T12:03:23.404Z,20.90
2022-09-15T12:06:56.342Z,20.80
2022-09-15T12:10:17.938Z,20.70
2022-09-15T12:13:22.739Z,20.60
2022-09-15T12:16:25.350Z,20.70
2022-09-15T12:19:35.847Z,20.60
2022-09-15T12:23:12.242Z,20.50
2022-09-15T12:26:23.355Z,20.50
2022-09-15T12:29:28.921Z,20.50
2022-09-15T12:32:33.325Z,20.50
2022-09-15T12:35:35.571Z,20.40
2022-09-15T12:38:37.629Z,20.30
2022-09-15T12:41:52.276Z,20.30
2022-09-15T12:45:32.379Z,20.20
2022-09-15T12:48:36.525Z,20.20
2022-09-15T12:51:38.609Z,20.10
2022-09-15T12:54:44.065Z,19.90
2022-09-15T12:57:52.059Z,19.90
2022-09-15T13:01:20.987Z,19.70
2022-09-15T13:04:51.486Z,19.60
2022-09-15T13:07:57.962Z,19.60
2022-09-15T13:11:09.727Z,19.60
2022-09-15T13:14:21.346Z,19.60
2022-09-15T13:17:25.846Z,19.60
2022-09-15T13:20:34.340Z,19.50
2022-09-15T13:23:40.995Z,19.30
2022-09-15T13:26:44.861Z,19.20
2022-09-15T13:29:51.024Z,19.20
2022-09-15T13:35:00.247Z,19.10
2022-09-15T13:41:02.168Z,18.90
2022-09-15T13:44:10.281Z,18.80
2022-09-15T13:47:38.462Z,18.80
2022-09-15T13:50:49.095Z,18.90
2022-09-15T13:54:01.474Z,18.90
2022-09-15T13:57:03.644Z,18.90
2022-09-15T14:00:11.708Z,18.90
2022-09-15T14:03:39.943Z,19.10
2022-09-15T14:06:43.392Z,19.20
2022-09-15T14:09:47.736Z,19.20
2022-09-15T14:12:50.742Z,19.30
2022-09-15T14:16:08.032Z,19.30
2022-09-15T14:19:34.262Z,19.30
2022-09-15T14:22:36.236Z,19.10
2022-09-15T14:25:38.202Z,18.90
2022-09-15T14:32:17.047Z,18.70
2022-09-15T14:35:24.275Z,18.80
2022-09-15T14:38:26.680Z,18.80
2022-09-15T14:41:32.502Z,18.80
2022-09-15T14:48:06.202Z,18.70
2022-09-15T14:51:28.786Z,18.70
2022-09-15T14:54:37.278Z,18.80
2022-09-15T15:01:00.393Z,18.80
2022-09-15T15:04:33.951Z,18.80
2022-09-15T15:07:38.502Z,18.80
2022-09-15T15:10:41.369Z,18.70
2022-09-15T15:13:46.908Z,18.60
2022-09-15T15:16:56.870Z,18.60
2022-09-15T15:20:02.409Z,18.50
2022-09-15T15:23:24.860Z,18.80
2022-09-15T15:26:29.880Z,18.80
2022-09-15T15:29:40.447Z,18.60
2022-09-15T15:32:43.306Z,18.40
2022-09-15T15:35:47.030Z,18.30
2022-09-15T15:38:54.885Z,18.20
2022-09-15T15:42:08.498Z,18.20
2022-09-15T15:45:21.860Z,18.10
2022-09-15T15:48:33.971Z,18.10
2022-09-15T15:51:39.123Z,18.20
2022-09-15T15:54:42.380Z,18.30
2022-09-15T15:57:44.539Z,18.30
2022-09-15T16:00:57.225Z,17.90
2022-09-15T16:03:59.158Z,17.80
2022-09-15T16:07:01.201Z,17.70
2022-09-15T16:10:04.585Z,17.60
2022-09-15T16:13:06.731Z,17.60
2022-09-15T16:16:19.744Z,17.50
2022-09-15T16:19:21.891Z,17.50
2022-09-15T16:22:23.751Z,17.50
2022-09-15T16:25:36.613Z,17.40
2022-09-15T16:28:39.134Z,17.40
2022-09-15T16:31:42.992Z,17.30
2022-09-15T16:34:45.017Z,17.30
2022-09-15T16:37:46.962Z,17.30
2022-09-15T16:40:49.434Z,17.30
2022-09-15T16:43:53.321Z,17.30
2022-09-15T16:46:55.340Z,17.30
2022-09-15T16:49:57.270Z,17.30
2022-09-15T16:52:59.505Z,17.20
2022-09-15T16:56:01.659Z,17.10
2022-09-15T16:59:03.665Z,17.00
2022-09-15T17:02:13.571Z,16.90
2022-09-15T17:05:20.179Z,16.80
2022-09-15T17:08:29.535Z,16.80
2022-09-15T17:11:31.470Z,16.80
2022-09-15T17:14:33.346Z,16.90
2022-09-15T17:17:35.311Z,16.90
2022-09-15T17:20:39.310Z,16.90
2022-09-15T17:23:44.845Z,16.90
2022-09-15T17:26:46.772Z,16.80
2022-09-15T17:29:48.684Z,16.80
2022-09-15T17:32:51.557Z,16.80
2022-09-15T17:35:53.664Z,16.80
2022-09-15T17:38:55.812Z,16.80
2022-09-15T17:41:57.672Z,16.80
2022-09-15T17:44:59.582Z,16.80
2022-09-15T17:48:05.010Z,16.80
2022-09-15T17:51:09.765Z,16.80
2022-09-15T17:54:11.821Z,16.80
2022-09-15T17:57:13.815Z,16.80
2022-09-15T18:00:18.463Z,16.70
2022-09-15T18:03:31.106Z,16.70
2022-09-15T18:06:33.009Z,16.60
2022-09-15T18:09:34.869Z,16.60
2022-09-15T18:12:36.817Z,16.60
2022-09-15T18:15:38.791Z,16.50
2022-09-15T18:18:41.473Z,16.40
2022-09-15T18:21:44.479Z,16.30
2022-09-15T18:24:46.335Z,16.30
2022-09-15T18:27:49.422Z,16.20
2022-09-15T18:30:52.188Z,16.10
2022-09-15T18:33:54.293Z,16.00
2022-09-15T18:36:57.967Z,16.00
2022-09-15T18:39:59.887Z,16.00
2022-09-15T18:43:02.016Z,16.00
2022-09-15T18:46:04.740Z,15.90
2022-09-15T18:49:09.375Z,15.90
2022-09-15T18:52:11.965Z,15.90
2022-09-15T18:55:18.049Z,15.90
2022-09-15T18:58:20.007Z,15.90
2022-09-15T19:01:22.062Z,15.90
2022-09-15T19:04:27.293Z,15.90
2022-09-15T19:07:31.538Z,15.90
2022-09-15T19:10:33.400Z,15.90
2022-09-15T19:13:35.730Z,15.90
2022-09-15T19:16:56.665Z,16.00
2022-09-15T19:20:00.394Z,16.10
2022-09-15T19:23:02.310Z,16.30
2022-09-15T19:26:06.187Z,16.30
2022-09-15T19:29:09.154Z,16.40
2022-09-15T19:32:13.218Z,16.30
2022-09-15T19:35:15.388Z,16.30
2022-09-15T19:38:17.308Z,16.40
2022-09-15T19:41:19.273Z,16.30
2022-09-15T19:44:21.102Z,16.30
2022-09-15T19:47:23.014Z,16.30
2022-09-15T19:50:24.912Z,16.20
2022-09-15T19:53:26.790Z,16.10
2022-09-15T19:56:29.656Z,16.00
2022-09-15T19:59:32.171Z,16.00
2022-09-15T20:02:34.494Z,15.90
2022-09-15T20:05:36.532Z,15.80
2022-09-15T20:08:38.579Z,15.80
2022-09-15T20:11:40.638Z,15.80
2022-09-15T20:14:42.600Z,15.70
2022-09-15T20:17:44.555Z,15.60
2022-09-15T20:20:46.603Z,15.60
2022-09-15T20:23:48.679Z,15.40
2022-09-15T20:26:53.565Z,15.40
2022-09-15T20:29:57.224Z,15.40
2022-09-15T20:32:59.112Z,15.40
2022-09-15T20:36:13.341Z,15.40
2022-09-15T20:39:15.908Z,15.30
2022-09-15T20:42:18.811Z,15.30
2022-09-15T20:45:20.652Z,15.30
2022-09-15T20:48:22.897Z,15.20
2022-09-15T20:51:31.658Z,15.20
2022-09-15T20:54:33.662Z,15.20
2022-09-15T20:57:35.550Z,15.20
2022-09-15T21:00:37.522Z,15.20
2022-09-15T21:03:41.456Z,15.20
2022-09-15T21:06:43.851Z,15.20
2022-09-15T21:09:45.685Z,15.20
2022-09-15T21:12:47.748Z,15.00
2022-09-15T21:15:58.106Z,15.00
2022-09-15T21:19:00.000Z,14.90
2022-09-15T21:22:01.876Z,14.90
2022-09-15T21:25:03.944Z,14.90
2022-09-15T21:28:06.471Z,14.80
2022-09-15T21:31:20.823Z,14.80
2022-09-15T21:34:23.928Z,14.80
2022-09-15T21:37:27.578Z,14.80
2022-09-15T21:40:29.545Z,14.80
2022-09-15T21:43:34.911Z,14.80
2022-09-15T21:46:36.749Z,14.70
2022-09-15T21:49:38.583Z,14.70
2022-09-15T21:52:40.485Z,14.70
2022-09-15T21:55:42.911Z,14.70
2022-09-15T21:58:45.015Z,14.80
2022-09-15T22:01:47.051Z,14.80
2022-09-15T22:04:49.038Z,14.70
2022-09-15T22:07:51.022Z,14.60
2022-09-15T22:10:59.977Z,14.70
2022-09-15T22:14:04.056Z,14.70
2022-09-15T22:17:05.921Z,14.70
2022-09-15T22:20:09.376Z,14.70
2022-09-15T22:23:11.212Z,14.80
2022-09-15T22:26:26.285Z,14.80
2022-09-15T22:29:28.121Z,14.80
2022-09-15T22:32:30.453Z,15.00
2022-09-15T22:35:32.431Z,15.20
2022-09-15T22:38:36.839Z,15.30
2022-09-15T22:41:39.439Z,15.40
2022-09-15T22:44:41.684Z,15.50
2022-09-15T22:47:43.511Z,15.60
2022-09-15T22:50:46.001Z,15.70
2022-09-15T22:53:48.098Z,15.80
2022-09-15T22:56:49.964Z,15.80
2022-09-15T22:59:51.849Z,15.80
2022-09-15T23:02:54.091Z,15.80
2022-09-15T23:06:00.251Z,15.80
2022-09-15T23:09:05.376Z,15.80
2022-09-15T23:12:09.933Z,15.80
2022-09-15T23:15:11.866Z,15.80
2022-09-15T23:18:13.692Z,15.70
2022-09-15T23:21:15.587Z,15.70
2022-09-15T23:24:17.431Z,15.70
2022-09-15T23:27:19.395Z,15.60
2022-09-15T23:30:21.217Z,15.60
2022-09-15T23:33:24.675Z,15.70
2022-09-15T23:36:26.691Z,15.60
2022-09-15T23:39:28.567Z,15.50
2022-09-15T23:42:30.393Z,15.60
2022-09-15T23:45:32.261Z,15.60
2022-09-15T23:48:34.175Z,15.50
2022-09-15T23:51:36.128Z,15.40
2022-09-15T23:54:39.347Z,15.20
2022-09-15T23:57:41.200Z,15.10
